createdAt,value
2023-03-08T00:01:30.361Z,10.90
2023-03-08T00:03:59.890Z,11.27
2023-03-08T00:06:29.079Z,10.30
2023-03-08T00:08:59.560Z,10.32
2023-03-08T00:11:30.183Z,10.10
2023-03-08T00:13:59.344Z,10.30
2023-03-08T00:16:28.075Z,9.48
2023-03-08T00:18:56.846Z,10.38
2023-03-08T00:21:25.715Z,10.63
2023-03-08T00:23:55.098Z,9.35
2023-03-08T00:26:24.023Z,9.55
2023-03-08T00:28:54.377Z,9.02
2023-03-08T00:31:23.519Z,9.20
2023-03-08T00:33:55.869Z,8.48
2023-03-08T00:36:24.874Z,8.82
2023-03-08T00:38:53.773Z,7.40
2023-03-08T00:41:22.744Z,8.30
2023-03-08T00:43:53.001Z,9.10
2023-03-08T00:46:21.922Z,7.15
2023-03-08T00:48:50.754Z,7.18
2023-03-08T00:51:21.537Z,6.93
2023-03-08T00:53:51.141Z,7.05
2023-03-08T00:56:20.003Z,5.82
2023-03-08T00:58:48.869Z,6.20
2023-03-08T01:01:20.516Z,6.88
2023-03-08T01:03:51.225Z,7.63
2023-03-08T01:06:20.153Z,8.25
2023-03-08T01:08:48.894Z,8.10
2023-03-08T01:11:19.276Z,6.97
2023-03-08T01:13:49.286Z,7.07
2023-03-08T01:16:21.783Z,7.57
2023-03-08T01:18:50.618Z,7.57
2023-03-08T01:21:21.815Z,7.93
2023-03-08T01:23:51.346Z,7.30
2023-03-08T01:26:22.263Z,8.48
2023-03-08T01:28:52.283Z,8.38
2023-03-08T01:31:23.839Z,7.10
2023-03-08T01:33:54.452Z,7.95
2023-03-08T01:36:25.332Z,7.43
2023-03-08T01:38:54.420Z,7.68
2023-03-08T01:41:24.906Z,8.02
2023-03-08T01:43:53.901Z,7.50
2023-03-08T01:46:27.596Z,7.53
2023-03-08T01:49:26.941Z,7.20
2023-03-08T01:54:30.732Z,7.30
2023-03-08T01:57:03.545Z,6.90
2023-03-08T01:59:34.758Z,6.85
2023-03-08T02:02:05.242Z,5.68
2023-03-08T02:04:36.219Z,6.75
2023-03-08T02:07:04.861Z,6.18
2023-03-08T02:09:33.664Z,6.53
2023-03-08T02:12:07.248Z,6.85
2023-03-08T02:14:36.503Z,6.65
2023-03-08T02:17:06.728Z,6.05
2023-03-08T02:19:41.282Z,6.10
2023-03-08T02:22:13.267Z,6.35
2023-03-08T02:24:44.150Z,6.20
2023-03-08T02:27:18.130Z,6.13
2023-03-08T02:29:47.043Z,6.63
2023-03-08T02:32:17.863Z,6.90
2023-03-08T02:34:46.730Z,6.30
2023-03-08T02:37:15.449Z,5.75
2023-03-08T02:39:45.555Z,5.78
2023-03-08T02:42:14.282Z,5.95
2023-03-08T02:44:45.123Z,5.15
2023-03-08T02:47:14.051Z,5.93
2023-03-08T02:49:42.817Z,5.93
2023-03-08T02:52:11.976Z,6.32
2023-03-08T02:54:40.744Z,7.05
2023-03-08T02:57:10.865Z,6.72
2023-03-08T02:59:40.671Z,6.40
2023-03-08T03:02:09.704Z,7.05
2023-03-08T03:04:38.804Z,5.88
2023-03-08T03:07:07.691Z,6.30
2023-03-08T03:09:37.578Z,5.35
2023-03-08T03:12:06.662Z,6.57
2023-03-08T03:14:40.450Z,6.20
2023-03-08T03:17:09.381Z,5.57
2023-03-08T03:19:39.680Z,5.15
2023-03-08T03:22:08.482Z,4.80
2023-03-08T03:24:37.683Z,4.60
2023-03-08T03:27:08.150Z,4.25
2023-03-08T03:29:41.030Z,3.50
2023-03-08T03:32:16.765Z,3.45
2023-03-08T03:34:45.889Z,3.80
2023-03-08T03:37:15.351Z,3.20
2023-03-08T03:39:44.503Z,3.38
2023-03-08T03:42:17.127Z,3.90
2023-03-08T03:44:56.730Z,2.63
2023-03-08T03:47:26.274Z,2.63
2023-03-08T03:49:59.332Z,2.83
2023-03-08T03:52:32.920Z,2.30
2023-03-08T03:55:06.718Z,2.25
2023-03-08T03:57:36.224Z,1.92
2023-03-08T04:00:07.968Z,1.90
2023-03-08T04:02:42.279Z,2.35
2023-03-08T04:05:14.356Z,1.80
2023-03-08T04:07:43.637Z,2.30
2023-03-08T04:10:13.163Z,2.35
2023-03-08T04:12:42.416Z,2.45
2023-03-08T04:15:12.948Z,1.80
2023-03-08T04:17:41.777Z,2.40
2023-03-08T04:20:11.643Z,1.98
2023-03-08T04:22:44.364Z,2.45
2023-03-08T04:25:21.480Z,1.90
2023-03-08T04:27:56.348Z,1.77
2023-03-08T04:30:26.588Z,2.35
2023-03-08T04:32:57.335Z,2.85
2023-03-08T04:35:32.371Z,2.40
2023-03-08T04:38:01.096Z,2.17
2023-03-08T04:40:31.128Z,2.50
2023-03-08T04:43:03.930Z,2.50
2023-03-08T04:45:39.717Z,2.88
2023-03-08T04:48:13.358Z,2.50
2023-03-08T04:50:42.411Z,2.65
2023-03-08T04:53:11.712Z,2.67
2023-03-08T04:55:40.873Z,2.30
2023-03-08T04:58:10.212Z,2.30
2023-03-08T05:00:40.494Z,3.00
2023-03-08T05:03:10.383Z,2.35
2023-03-08T05:05:39.319Z,2.38
2023-03-08T05:08:08.231Z,2.45
2023-03-08T05:10:39.175Z,2.70
2023-03-08T05:13:08.923Z,2.05
2023-03-08T05:15:37.748Z,2.42
2023-03-08T05:18:07.962Z,2.85
2023-03-08T05:20:39.018Z,2.15
2023-03-08T05:23:08.045Z,2.67
2023-03-08T05:25:44.952Z,3.20
2023-03-08T05:28:16.077Z,2.55
2023-03-08T05:30:47.253Z,2.25
2023-03-08T05:33:18.683Z,2.30
2023-03-08T05:35:55.420Z,2.22
2023-03-08T05:38:26.352Z,2.50
2023-03-08T05:40:56.064Z,2.47
2023-03-08T05:43:25.013Z,2.05
2023-03-08T05:45:58.460Z,2.10
2023-03-08T05:48:30.602Z,1.92
2023-03-08T05:51:00.005Z,2.05
2023-03-08T05:53:29.028Z,2.22
2023-03-08T05:55:58.504Z,2.28
2023-03-08T05:58:27.437Z,2.70
2023-03-08T06:00:56.377Z,2.17
2023-03-08T06:03:25.796Z,2.17
2023-03-08T06:05:56.038Z,2.63
2023-03-08T06:08:25.100Z,2.45
2023-03-08T06:10:54.183Z,2.65
2023-03-08T06:13:23.351Z,2.58
2023-03-08T06:15:56.673Z,2.15
2023-03-08T06:18:26.588Z,2.22
2023-03-08T06:21:02.329Z,2.15
2023-03-08T06:23:34.613Z,2.70
2023-03-08T06:26:05.762Z,2.45
2023-03-08T06:28:36.806Z,3.20
2023-03-08T06:31:06.326Z,3.38
2023-03-08T06:33:36.767Z,3.25
2023-03-08T06:36:09.105Z,3.35
2023-03-08T06:38:39.875Z,3.78
2023-03-08T06:41:09.535Z,3.35
2023-03-08T06:43:38.943Z,3.15
2023-03-08T06:46:08.985Z,3.80
2023-03-08T06:48:38.518Z,3.17
2023-03-08T06:51:10.456Z,3.88
2023-03-08T06:53:42.302Z,3.63
2023-03-08T06:56:14.620Z,3.47
2023-03-08T06:58:44.814Z,3.58
2023-03-08T07:01:14.929Z,3.63
2023-03-08T07:03:45.464Z,3.20
2023-03-08T07:06:16.309Z,3.20
2023-03-08T07:08:45.737Z,3.67
2023-03-08T07:11:14.691Z,3.53
2023-03-08T07:13:43.654Z,3.53
2023-03-08T07:16:14.245Z,2.88
2023-03-08T07:18:43.272Z,3.50
2023-03-08T07:21:12.394Z,2.80
2023-03-08T07:23:42.672Z,3.28
2023-03-08T07:26:12.424Z,2.90
2023-03-08T07:28:41.755Z,2.25
2023-03-08T07:31:13.111Z,3.08
2023-03-08T07:33:42.051Z,2.55
2023-03-08T07:36:11.157Z,2.70
2023-03-08T07:38:40.143Z,3.08
2023-03-08T07:41:10.603Z,2.20
2023-03-08T07:43:39.459Z,2.88
2023-03-08T07:46:16.339Z,2.72
2023-03-08T07:48:45.228Z,2.42
2023-03-08T07:51:14.223Z,2.53
2023-03-08T07:53:43.032Z,2.22
2023-03-08T07:56:13.386Z,4.43
2023-03-08T07:58:42.205Z,2.53
2023-03-08T08:01:11.546Z,2.15
2023-03-08T08:03:41.095Z,1.95
2023-03-08T08:06:10.405Z,2.08
2023-03-08T08:08:39.266Z,2.00
2023-03-08T08:11:16.535Z,2.33
2023-03-08T08:13:46.928Z,1.85
2023-03-08T08:16:17.088Z,2.10
2023-03-08T08:18:46.088Z,2.30
2023-03-08T08:21:16.504Z,1.70
2023-03-08T08:23:45.742Z,2.78
2023-03-08T08:26:17.536Z,2.60
2023-03-08T08:28:48.187Z,2.72
2023-03-08T08:31:19.636Z,2.45
2023-03-08T08:33:48.431Z,2.22
2023-03-08T08:36:19.572Z,2.00
2023-03-08T08:38:49.014Z,2.70
2023-03-08T08:41:20.728Z,2.92
2023-03-08T08:43:50.665Z,2.30
2023-03-08T08:46:20.115Z,2.47
2023-03-08T08:48:48.922Z,2.08
2023-03-08T08:51:18.189Z,2.25
2023-03-08T08:53:46.887Z,2.42
2023-03-08T08:56:26.511Z,2.65
2023-03-08T08:59:01.460Z,2.10
2023-03-08T09:01:31.848Z,2.17
2023-03-08T09:04:01.312Z,2.60
2023-03-08T09:06:31.169Z,2.88
2023-03-08T09:09:00.780Z,2.78
2023-03-08T09:11:30.219Z,2.90
2023-03-08T09:14:02.371Z,2.75
2023-03-08T09:16:32.672Z,2.20
2023-03-08T09:19:04.429Z,2.63
2023-03-08T09:21:34.624Z,2.40
2023-03-08T09:24:06.075Z,2.83
2023-03-08T09:26:37.432Z,2.60
2023-03-08T09:29:12.049Z,3.35
2023-03-08T09:31:42.483Z,2.60
2023-03-08T09:34:14.290Z,2.92
2023-03-08T09:36:43.618Z,3.40
2023-03-08T09:39:14.302Z,3.83
2023-03-08T09:41:50.138Z,3.47
2023-03-08T09:44:49.523Z,4.00
2023-03-08T09:47:29.663Z,3.38
2023-03-08T09:50:10.046Z,3.90
2023-03-08T09:52:41.704Z,3.42
2023-03-08T09:55:18.797Z,3.35
2023-03-08T09:57:53.533Z,3.85
2023-03-08T10:00:33.077Z,3.10
2023-03-08T10:03:19.078Z,3.10
2023-03-08T10:05:54.925Z,3.10
2023-03-08T10:08:27.380Z,3.30
2023-03-08T10:11:01.457Z,3.15
2023-03-08T10:13:34.940Z,3.63
2023-03-08T10:16:13.861Z,3.28
2023-03-08T10:18:48.205Z,3.65
2023-03-08T10:21:19.442Z,3.58
2023-03-08T10:23:53.714Z,3.35
2023-03-08T10:26:22.597Z,3.20
2023-03-08T10:28:51.455Z,3.42
2023-03-08T10:31:25.910Z,3.08
2023-03-08T10:34:03.032Z,3.53
2023-03-08T10:36:32.356Z,4.13
2023-03-08T10:39:06.940Z,3.90
2023-03-08T10:41:43.551Z,4.32
2023-03-08T10:44:17.883Z,4.65
2023-03-08T10:46:51.844Z,4.43
2023-03-08T10:49:26.865Z,4.63
2023-03-08T10:51:58.480Z,5.00
2023-03-08T10:54:28.332Z,4.40
2023-03-08T10:56:59.772Z,4.05
2023-03-08T10:59:33.349Z,4.70
2023-03-08T11:02:18.333Z,4.53
2023-03-08T11:04:53.228Z,4.63
2023-03-08T11:07:24.643Z,4.38
2023-03-08T11:10:05.225Z,4.97
2023-03-08T11:12:34.131Z,5.35
2023-03-08T11:15:03.008Z,5.47
2023-03-08T11:17:39.478Z,6.90
2023-03-08T11:20:18.097Z,5.18
2023-03-08T11:22:59.282Z,5.57
2023-03-08T11:25:36.276Z,5.43
2023-03-08T11:28:33.457Z,6.05
2023-03-08T11:31:18.247Z,6.00
2023-03-08T11:34:21.791Z,5.10
2023-03-08T11:36:58.495Z,5.60
2023-03-08T11:39:31.147Z,5.78
2023-03-08T11:42:14.317Z,6.60
2023-03-08T11:45:09.894Z,7.32
2023-03-08T11:48:01.586Z,6.53
2023-03-08T11:50:34.905Z,7.32
2023-03-08T11:53:18.190Z,6.13
2023-03-08T11:56:00.062Z,6.80
2023-03-08T11:58:33.597Z,6.60
2023-03-08T12:01:03.733Z,6.88
2023-03-08T12:03:36.255Z,6.72
2023-03-08T12:06:26.546Z,6.15
2023-03-08T12:09:02.553Z,5.97
2023-03-08T12:11:34.439Z,6.93
2023-03-08T12:14:07.726Z,6.57
2023-03-08T12:16:44.054Z,6.70
2023-03-08T12:19:20.663Z,6.13
2023-03-08T12:21:54.044Z,6.55
2023-03-08T12:24:33.231Z,6.07
2023-03-08T12:27:07.187Z,5.78
2023-03-08T12:29:40.438Z,6.60
2023-03-08T12:32:12.176Z,6.55
2023-03-08T12:34:43.028Z,6.25
2023-03-08T12:37:25.281Z,5.78
2023-03-08T12:40:00.149Z,7.88
2023-03-08T12:42:38.698Z,8.02
2023-03-08T12:45:30.187Z,6.47
2023-03-08T12:48:09.663Z,6.40
2023-03-08T12:50:54.816Z,6.18
2023-03-08T12:53:28.227Z,7.90
2023-03-08T12:56:07.119Z,6.45
2023-03-08T12:58:39.275Z,6.18
2023-03-08T13:01:25.073Z,6.43
2023-03-08T13:03:53.957Z,6.30
2023-03-08T13:07:05.375Z,5.95
2023-03-08T13:09:39.306Z,6.85
2023-03-08T13:12:31.247Z,6.80
2023-03-08T13:15:03.493Z,6.75
2023-03-08T13:17:39.509Z,6.63
2023-03-08T13:20:18.715Z,6.63
2023-03-08T13:22:58.724Z,7.10
2023-03-08T13:25:45.771Z,7.22
2023-03-08T13:28:17.045Z,6.75
2023-03-08T13:30:52.292Z,7.18
2023-03-08T13:33:25.638Z,6.97
2023-03-08T13:35:59.380Z,7.32
2023-03-08T13:38:30.974Z,7.82
2023-03-08T13:41:01.595Z,7.40
2023-03-08T13:43:32.267Z,7.55
2023-03-08T13:46:03.269Z,6.72
2023-03-08T13:48:35.017Z,8.02
2023-03-08T13:51:05.132Z,7.32
2023-03-08T13:53:37.342Z,6.93
2023-03-08T13:56:09.352Z,7.53
2023-03-08T13:58:40.325Z,6.88
2023-03-08T14:01:13.445Z,7.78
2023-03-08T14:03:43.646Z,7.43
2023-03-08T14:06:20.172Z,7.55
2023-03-08T14:08:49.914Z,7.03
2023-03-08T14:11:23.003Z,7.20
2023-03-08T14:13:54.599Z,7.05
2023-03-08T14:16:31.482Z,6.30
2023-03-08T14:19:02.130Z,6.63
2023-03-08T14:21:31.657Z,6.97
2023-03-08T14:24:02.342Z,7.65
2023-03-08T14:26:35.016Z,7.70
2023-03-08T14:31:34.799Z,8.68
2023-03-08T14:34:05.769Z,7.35
2023-03-08T14:36:35.245Z,7.20
2023-03-08T14:39:04.784Z,7.75
2023-03-08T14:41:37.435Z,7.15
2023-03-08T14:46:35.317Z,6.68
2023-03-08T14:49:05.904Z,7.20
2023-03-08T14:51:41.961Z,7.45
2023-03-08T14:54:24.087Z,7.93
2023-03-08T14:56:54.346Z,7.97
2023-03-08T14:59:27.745Z,7.72
2023-03-08T15:01:57.201Z,8.15
2023-03-08T15:04:26.902Z,7.45
2023-03-08T15:06:56.024Z,7.93
2023-03-08T15:09:26.275Z,7.63
2023-03-08T15:11:59.839Z,8.70
2023-03-08T15:14:30.529Z,8.50
2023-03-08T15:16:59.457Z,7.88
2023-03-08T15:19:28.263Z,8.32
2023-03-08T15:21:57.315Z,7.90
2023-03-08T15:24:26.350Z,8.52
2023-03-08T15:26:57.214Z,8.65
2023-03-08T15:29:28.394Z,8.27
2023-03-08T15:31:58.045Z,8.32
2023-03-08T15:34:28.478Z,8.02
2023-03-08T15:36:57.642Z,8.98
2023-03-08T15:39:26.563Z,6.72
2023-03-08T15:41:56.803Z,7.78
2023-03-08T15:44:25.926Z,8.73
2023-03-08T15:46:54.762Z,8.93
2023-03-08T15:49:23.657Z,8.38
2023-03-08T15:51:52.782Z,8.05
2023-03-08T15:54:21.516Z,7.93
2023-03-08T15:56:50.452Z,9.25
2023-03-08T15:59:20.723Z,8.43
2023-03-08T16:01:49.591Z,8.95
2023-03-08T16:04:18.475Z,9.18
2023-03-08T16:06:47.210Z,8.70
2023-03-08T16:09:16.189Z,8.43
2023-03-08T16:11:46.633Z,9.00
2023-03-08T16:14:17.910Z,9.05
2023-03-08T16:16:48.105Z,8.65
2023-03-08T16:19:17.119Z,8.75
2023-03-08T16:21:45.797Z,9.15
2023-03-08T16:24:14.914Z,9.20
2023-03-08T16:26:44.066Z,9.02
2023-03-08T16:29:12.849Z,9.55
2023-03-08T16:31:41.849Z,11.73
2023-03-08T16:34:13.450Z,10.95
2023-03-08T16:36:42.388Z,9.88
2023-03-08T16:39:11.215Z,8.95
2023-03-08T16:41:41.364Z,9.02
2023-03-08T16:44:19.450Z,9.80
2023-03-08T16:46:48.417Z,9.85
2023-03-08T16:49:19.456Z,11.45
2023-03-08T16:51:50.437Z,9.68
2023-03-08T16:54:19.206Z,10.30
2023-03-08T16:56:47.940Z,9.07
2023-03-08T16:59:17.575Z,10.10
2023-03-08T17:01:47.467Z,9.98
2023-03-08T17:04:16.216Z,10.30
2023-03-08T17:06:47.347Z,8.95
2023-03-08T17:09:16.116Z,11.05
2023-03-08T17:11:45.630Z,11.30
2023-03-08T17:14:15.352Z,14.85
2023-03-08T17:16:44.523Z,10.70
2023-03-08T17:19:14.426Z,10.25
2023-03-08T17:21:43.376Z,11.50
2023-03-08T17:24:15.762Z,10.75
2023-03-08T17:26:46.926Z,11.40
2023-03-08T17:29:16.184Z,12.27
2023-03-08T17:31:45.220Z,9.15
2023-03-08T17:34:14.293Z,12.57
2023-03-08T17:36:43.758Z,11.25
2023-03-08T17:39:14.245Z,11.18
2023-03-08T17:41:44.839Z,10.85
2023-03-08T17:44:14.160Z,11.38
2023-03-08T17:46:43.171Z,11.60
2023-03-08T17:49:13.173Z,11.25
2023-03-08T17:51:42.580Z,9.98
2023-03-08T17:54:11.854Z,10.82
2023-03-08T17:56:42.315Z,11.82
2023-03-08T17:59:15.055Z,10.80
2023-03-08T18:01:44.576Z,11.30
2023-03-08T18:04:13.426Z,11.25
2023-03-08T18:06:43.669Z,11.25
2023-03-08T18:09:14.597Z,13.90
2023-03-08T18:11:44.891Z,11.57
2023-03-08T18:14:15.284Z,14.23
2023-03-08T18:16:44.913Z,11.70
2023-03-08T18:19:13.970Z,12.70
2023-03-08T18:21:43.046Z,13.65
2023-03-08T18:24:13.509Z,12.80
2023-03-08T18:26:45.243Z,15.75
2023-03-08T18:29:15.444Z,15.02
2023-03-08T18:31:44.862Z,13.85
2023-03-08T18:34:13.768Z,13.00
2023-03-08T18:36:42.563Z,13.57
2023-03-08T18:39:14.614Z,13.07
2023-03-08T18:41:43.510Z,12.77
2023-03-08T18:44:14.745Z,11.48
2023-03-08T18:46:43.889Z,14.02
2023-03-08T18:49:13.898Z,12.32
2023-03-08T18:51:44.080Z,13.57
2023-03-08T18:54:15.648Z,12.73
2023-03-08T18:56:44.754Z,12.05
2023-03-08T18:59:15.846Z,12.25
2023-03-08T19:01:45.352Z,13.85
2023-03-08T19:04:14.484Z,13.60
2023-03-08T19:06:43.370Z,12.88
2023-03-08T19:09:13.307Z,15.38
2023-03-08T19:11:42.849Z,13.15
2023-03-08T19:14:14.088Z,14.85
2023-03-08T19:16:43.239Z,12.57
2023-03-08T19:19:14.374Z,16.02
2023-03-08T19:21:44.832Z,12.07
2023-03-08T19:24:14.498Z,13.23
2023-03-08T19:26:47.267Z,14.77
2023-03-08T19:29:20.572Z,11.85
2023-03-08T19:31:51.780Z,11.88
2023-03-08T19:34:21.634Z,11.68
2023-03-08T19:36:51.437Z,13.00
2023-03-08T19:39:23.164Z,14.20
2023-03-08T19:41:53.922Z,12.48
2023-03-08T19:44:24.992Z,12.32
2023-03-08T19:46:55.958Z,12.13
2023-03-08T19:49:29.521Z,13.70
2023-03-08T19:52:00.108Z,12.00
2023-03-08T19:54:30.085Z,11.55
2023-03-08T19:56:59.792Z,11.23
2023-03-08T19:59:30.014Z,10.90
2023-03-08T20:01:59.227Z,10.82
2023-03-08T20:04:29.367Z,10.65
2023-03-08T20:07:00.992Z,10.95
2023-03-08T20:09:30.094Z,11.13
2023-03-08T20:11:59.286Z,11.52
2023-03-08T20:14:29.751Z,11.45
2023-03-08T20:16:59.161Z,11.20
2023-03-08T20:19:30.402Z,10.95
2023-03-08T20:21:59.375Z,10.75
2023-03-08T20:24:28.598Z,10.98
2023-03-08T20:26:59.241Z,10.27
2023-03-08T20:29:32.227Z,11.68
2023-03-08T20:32:03.754Z,11.80
2023-03-08T20:34:32.777Z,10.60
2023-03-08T20:37:01.543Z,11.35
2023-03-08T20:39:30.418Z,10.82
2023-03-08T20:41:59.157Z,11.98
2023-03-08T20:44:28.147Z,11.20
2023-03-08T20:46:58.620Z,10.48
2023-03-08T20:49:28.688Z,11.55
2023-03-08T20:51:57.484Z,11.23
2023-03-08T20:54:26.450Z,10.73
2023-03-08T20:56:55.278Z,11.65
2023-03-08T20:59:26.936Z,10.77
2023-03-08T21:01:57.571Z,11.05
2023-03-08T21:04:28.990Z,11.50
2023-03-08T21:06:58.148Z,13.57
2023-03-08T21:09:26.936Z,10.63
2023-03-08T21:11:55.954Z,10.55
2023-03-08T21:14:29.139Z,11.52
2023-03-08T21:17:05.074Z,10.80
2023-03-08T21:19:33.938Z,11.13
2023-03-08T21:22:03.541Z,10.75
2023-03-08T21:24:34.200Z,11.00
2023-03-08T21:27:03.404Z,10.68
2023-03-08T21:29:34.019Z,11.27
2023-03-08T21:32:05.062Z,10.27
2023-03-08T21:34:36.372Z,10.68
2023-03-08T21:37:05.138Z,12.02
2023-03-08T21:39:34.799Z,10.95
2023-03-08T21:42:03.842Z,10.27
2023-03-08T21:44:32.699Z,10.90
2023-03-08T21:47:03.157Z,11.25
2023-03-08T21:49:34.376Z,9.63
2023-03-08T21:52:03.800Z,11.38
2023-03-08T21:54:33.205Z,10.43
2023-03-08T21:57:02.253Z,11.05
2023-03-08T21:59:31.237Z,10.25
2023-03-08T22:02:00.136Z,10.75
2023-03-08T22:04:30.509Z,10.13
2023-03-08T22:06:59.238Z,9.57
2023-03-08T22:09:29.258Z,11.57
2023-03-08T22:12:00.977Z,10.68
2023-03-08T22:14:32.180Z,11.05
2023-03-08T22:17:01.915Z,10.40
2023-03-08T22:19:32.098Z,9.95
2023-03-08T22:22:01.047Z,9.23
2023-03-08T22:24:32.116Z,9.95
2023-03-08T22:27:01.417Z,10.90
2023-03-08T22:29:33.950Z,9.75
2023-03-08T22:32:02.994Z,9.68
2023-03-08T22:34:35.065Z,9.63
2023-03-08T22:37:05.130Z,8.98
2023-03-08T22:39:34.177Z,9.15
2023-03-08T22:42:03.175Z,8.20
2023-03-08T22:44:32.041Z,8.73
2023-03-08T22:47:02.510Z,8.48
2023-03-08T22:49:32.799Z,7.22
2023-03-08T22:52:01.656Z,7.90
2023-03-08T22:54:30.538Z,8.70
2023-03-08T22:56:59.662Z,6.57
2023-03-08T22:59:28.677Z,7.15
2023-03-08T23:01:57.716Z,7.13
2023-03-08T23:04:26.999Z,7.03
2023-03-08T23:06:57.151Z,5.63
2023-03-08T23:09:26.171Z,5.90
2023-03-08T23:11:54.995Z,6.30
2023-03-08T23:14:23.828Z,5.78
2023-03-08T23:16:52.775Z,5.82
2023-03-08T23:19:22.993Z,6.10
2023-03-08T23:21:51.917Z,5.57
2023-03-08T23:24:22.966Z,5.82
2023-03-08T23:26:53.717Z,4.38
2023-03-08T23:29:22.553Z,5.22
2023-03-08T23:31:51.268Z,5.45
2023-03-08T23:34:20.048Z,5.20
2023-03-08T23:36:48.913Z,5.68
2023-03-08T23:39:17.795Z,5.03
2023-03-08T23:41:47.979Z,6.53
2023-03-08T23:44:19.776Z,5.72
2023-03-08T23:46:49.393Z,5.72
2023-03-08T23:49:18.374Z,6.03
2023-03-08T23:51:47.195Z,5.82
2023-03-08T23:54:15.893Z,6.20
2023-03-08T23:56:44.803Z,5.85
2023-03-08T23:59:18.668Z,6.35
